Latest Weather Observations for Alice Springs Airport

IDD60801

Issued at 7:31 am CST Wednesday 28 September 2016 (issued every 30 minutes, with the page automatically refreshed every 10 minutes)

About weather observations | Map of weather stations | Latest weather observations for NT | Other Formats
Station Details ID: 015590 Name: ALICE SPRINGS AIRPORT Lat: -23.80 Lon: 133.89 Height: 546.0 m
Data from the previous 72 hours. | See also: Recent months at Alice Springs Airport
Date/Time
CST
Temp
°C
App
Temp
°C
Dew
Point
°C
Rel
Hum
%
Delta-T
°C
Wind Press
QNH
hPa
Press
MSL
hPa
Rain since
9am
mm
Dir  Spd
km/h
Gust
km/h
Spd
kts
Gust
kts
28/07:30am 17.8 14.4 14.8 82 1.8 NW 26 33 14 18 1012.8 1010.9 0.8
28/07:00am 18.1 16.0 14.6 80 2.1 NW 19 30 10 16 1012.3 1010.4 0.6
28/06:30am 17.5 14.3 14.3 81 1.9 NNW 24 33 13 18 1011.7 1009.8 0.4
28/06:00am 18.8 16.7 13.7 72 3.0 N 17 24 9 13 1011.4 1009.5 0.2
28/05:30am 18.2 14.7 13.4 73 2.8 N 24 33 13 18 1011.3 1009.4 0.0
28/05:00am 19.0 16.0 12.0 64 4.0 N 19 28 10 15 1011.0 1009.1 0.0
28/04:30am 18.9 15.4 12.3 65 3.8 NNW 22 32 12 17 1010.6 1008.7 0.0
28/04:00am 20.0 16.1 10.9 55 5.1 NNW 22 30 12 16 1010.5 1008.6 0.0
28/03:30am 19.9 15.7 11.0 56 5.0 NNW 24 33 13 18 1010.5 1008.6 0.0
28/03:00am 19.4 16.9 12.2 63 4.1 NNW 17 22 9 12 1010.7 1008.8 0.0
28/02:30am 19.8 16.9 12.3 62 4.3 NW 19 26 10 14 1011.5 1009.6 0.0
28/02:00am 20.1 17.1 12.7 62 4.3 NNW 20 30 11 16 1011.7 1009.8 0.0
28/01:30am 19.9 16.2 12.6 63 4.2 NW 24 32 13 17 1011.8 1009.9 0.0
28/01:00am 19.8 18.4 13.5 67 3.7 N 13 26 7 14 1012.2 1010.3 0.0
28/12:30am 19.8 18.1 13.5 67 3.7 NNW 15 22 8 12 1012.9 1011.0 0.0
28/12:00am 19.9 18.1 13.4 66 3.8 NNW 15 26 8 14 1013.1 1011.2 0.0
 
Date/Time
CST
Temp
°C
App
Temp
°C
Dew
Point
°C
Rel
Hum
%
Delta-T
°C
Wind Press
QNH
hPa
Press
MSL
hPa
Rain since
9am
mm
Dir  Spd
km/h
Gust
km/h
Spd
kts
Gust
kts
27/11:30pm 20.0 16.4 12.9 63 4.1 N 24 35 13 19 1013.1 1011.2 0.0
27/11:00pm 20.1 14.7 12.3 61 4.5 NNW 32 43 17 23 1013.3 1011.4 0.0
27/10:30pm 20.3 14.8 11.7 57 4.9 NNW 32 43 17 23 1013.6 1011.8 0.0
27/10:06pm 20.6 15.3 11.4 55 5.2 NNW 30 52 16 28 1013.5 1011.7 0.0
27/10:00pm 20.6 15.7 11.2 55 5.3 NNW 28 35 15 19 1013.6 1011.8 0.0
27/09:30pm 20.5 16.9 11.7 57 5.0 NNW 22 33 12 18 1014.0 1012.1 0.0
27/09:00pm 20.8 16.8 11.7 56 5.2 NNW 24 37 13 20 1013.8 1012.0 0.0
27/08:30pm 21.0 17.0 11.7 55 5.3 N 24 35 13 19 1014.0 1012.1 0.0
27/08:00pm 20.7 18.4 13.0 61 4.5 N 17 20 9 11 1013.3 1011.4 0.0
27/07:30pm 21.0 18.6 12.6 58 4.9 N 17 26 9 14 1013.3 1011.4 0.0
27/07:00pm 21.4 18.2 12.0 55 5.4 N 20 26 11 14 1012.9 1011.0 0.0
27/06:30pm 21.6 18.5 11.6 53 5.7 N 19 26 10 14 1012.8 1010.9 0.0
27/06:00pm 22.2 19.9 11.6 51 6.1 N 15 20 8 11 1012.9 1011.0 0.0
27/05:30pm 23.2 19.8 12.6 51 6.2 N 22 32 12 17 1012.8 1010.9 0.0
27/05:00pm 23.6 20.9 13.5 53 6.0 N 20 28 11 15 1012.9 1011.0 0.0
27/04:30pm 24.4 21.5 14.1 52 6.2 N 22 30 12 16 1012.8 1010.9 0.0
27/04:00pm 23.7 21.3 14.3 55 5.7 NNW 20 26 11 14 1013.1 1011.2 0.0
27/03:30pm 24.0 20.3 14.0 53 6.0 NNW 26 32 14 17 1013.2 1011.3 0.0
27/03:00pm 24.1 19.2 13.6 52 6.3 NNW 32 37 17 20 1013.4 1011.5 0.0
27/02:30pm 24.0 21.0 13.8 53 6.1 NNW 22 32 12 17 1013.6 1011.8 0.0
27/02:00pm 22.3 19.3 13.7 58 5.1 N 22 30 12 16 1014.2 1012.3 0.0
27/01:30pm 22.0 17.4 13.6 59 5.0 N 30 39 16 21 1014.5 1012.6 0.0
27/01:00pm 22.3 18.5 13.7 58 5.1 N 26 37 14 20 1015.1 1013.3 0.0
27/12:30pm 22.1 17.3 13.9 59 4.9 N 32 46 17 25 1016.1 1014.2 0.0
27/12:00pm 21.9 17.9 14.2 61 4.6 N 28 37 15 20 1016.6 1014.7 0.0
27/11:30am 20.8 17.9 13.9 64 4.1 N 22 39 12 21 1017.2 1015.4 0.0
27/11:00am 20.1 18.0 14.6 70 3.3 N 19 28 10 15 1017.5 1015.7 0.0
27/10:30am 18.8 15.8 13.7 72 3.0 N 22 35 12 19 1017.7 1015.9 0.0
27/10:00am 18.7 16.0 13.6 72 3.0 N 20 30 11 16 1017.7 1015.9 0.0
27/09:30am 18.5 16.0 14.1 75 2.6 N 20 30 11 16 1017.5 1015.7 0.0
27/09:00am 18.2 16.3 14.1 77 2.4 NNE 17 22 9 12 1017.2 1015.4 3.4
27/08:30am 18.0 16.9 14.3 79 2.2 N 13 17 7 9 1017.5 1015.7 3.4
27/08:00am 17.7 17.2 14.8 83 1.7 NNE 11 17 6 9 1017.3 1015.5 3.4
27/07:30am 17.6 17.8 14.7 83 1.7 NNE 7 17 4 9 1017.3 1015.5 3.4
27/07:00am 17.5 16.6 14.8 84 1.6 N 13 19 7 10 1017.0 1015.2 3.4
27/06:30am 17.0 15.0 15.0 88 1.2 N 19 26 10 14 1017.2 1015.4 3.4
27/06:00am 17.0 15.3 14.6 86 1.4 NNW 17 26 9 14 1017.0 1015.2 3.4
27/05:30am 16.7 16.1 14.7 88 1.2 NNW 11 15 6 8 1016.2 1014.3 3.4
27/05:00am 16.6 16.4 14.6 88 1.2 N 9 13 5 7 1015.5 1013.7 3.4
27/04:30am 16.6 16.8 14.7 88 1.1 NE 7 11 4 6 1015.2 1013.4 3.4
27/04:00am 16.3 16.5 14.6 90 1.0 NNE 7 11 4 6 1015.5 1013.7 3.4
27/03:30am 16.2 15.9 14.5 90 1.0 NNE 9 13 5 7 1015.6 1013.8 3.4
27/03:00am 16.0 15.3 14.3 90 1.0 NNE 11 15 6 8 1015.8 1014.0 3.4
27/02:30am 15.6 13.6 13.9 90 1.0 NNE 17 26 9 14 1016.1 1014.2 3.2
27/02:00am 15.1 12.5 13.7 91 0.8 NE 20 26 11 14 1016.4 1014.5 3.2
27/01:30am 15.2 14.5 13.3 88 1.1 E 9 13 5 7 1017.2 1015.4 3.2
27/01:00am 15.3 13.1 13.4 88 1.1 NE 17 22 9 12 1017.1 1015.3 3.2
27/12:30am 15.6 14.3 13.7 88 1.1 NE 13 17 7 9 1017.7 1015.9 3.2
27/12:00am 15.3 14.5 14.1 92 0.7 ENE 11 13 6 7 1018.0 1016.1 3.2
 
Date/Time
CST
Temp
°C
App
Temp
°C
Dew
Point
°C
Rel
Hum
%
Delta-T
°C
Wind Press
QNH
hPa
Press
MSL
hPa
Rain since
9am
mm
Dir  Spd
km/h
Gust
km/h
Spd
kts
Gust
kts
26/11:30pm 15.2 13.2 13.8 91 0.8 ENE 17 24 9 13 1018.0 1016.1 3.2
26/11:00pm 14.9 13.7 13.9 94 0.6 ENE 13 19 7 10 1018.2 1016.3 3.0
26/10:30pm 15.2 13.9 13.6 90 0.9 ENE 13 17 7 9 1018.7 1016.9 2.0
26/10:00pm 15.6 14.4 13.9 90 1.0 E 13 17 7 9 1018.5 1016.7 1.6
26/09:30pm 16.2 15.6 14.5 90 1.0 E 11 15 6 8 1018.7 1016.9 1.2
26/09:00pm 17.0 16.6 14.1 83 1.7 ESE 9 9 5 5 1018.8 1017.0 0.6
26/08:30pm 17.9 16.5 13.4 75 2.6 SSE 13 30 7 16 1018.4 1016.6 0.0
26/08:00pm 20.0 19.4 11.7 59 4.7 W 6 15 3 8 1017.6 1015.8 0.0
26/07:30pm 20.7 19.3 10.9 53 5.5 SSE 9 11 5 6 1016.4 1014.5 0.0
26/07:00pm 22.3 19.2 7.2 37 8.0 SE 13 15 7 8 1015.2 1013.4 0.0
26/06:30pm 23.0 18.9 6.4 34 8.7 ESE 17 19 9 10 1014.6 1012.7 0.0
26/06:00pm 23.4 19.4 6.8 34 8.8 ESE 17 20 9 11 1014.1 1012.2 0.0
26/05:30pm 23.9 19.9 6.5 32 9.2 E 17 20 9 11 1013.6 1011.8 0.0
26/05:00pm 24.7 20.3 6.4 31 9.7 ESE 19 26 10 14 1013.4 1011.5 0.0
26/04:30pm 25.5 21.6 6.9 30 10.0 SE 17 26 9 14 1013.4 1011.5 0.0
26/04:00pm 26.7 24.7 8.8 32 10.0 ESE 9 17 5 9 1013.2 1011.3 0.0
26/03:30pm 26.8 25.4 8.7 32 10.1 ENE 6 9 3 5 1012.9 1011.0 0.0
26/03:00pm 26.1 23.5 7.9 31 10.0 NE 11 15 6 8 1012.8 1010.9 0.0
26/02:30pm 26.1 23.4 7.3 30 10.2 N 11 19 6 10 1013.1 1011.2 0.0
26/02:00pm 25.9 22.4 7.3 30 10.1 NNE 15 19 8 10 1013.4 1011.5 0.0
26/01:30pm 25.4 21.0 6.5 30 10.1 NNE 19 28 10 15 1013.8 1012.0 0.0
26/01:00pm 25.0 22.0 5.8 29 10.1 E 11 17 6 9 1014.4 1012.5 0.0
26/12:30pm 21.9 19.5 6.9 38 7.9 E 9 15 5 8 1015.1 1013.3 0.0
26/12:00pm 21.0 18.1 6.6 39 7.5 E 11 15 6 8 1015.5 1013.7 0.0
26/11:30am 20.3 17.0 6.3 40 7.2 E 13 17 7 9 1016.0 1014.1 0.0
26/11:00am 19.4 16.4 6.1 42 6.8 E 11 15 6 8 1016.2 1014.3 0.0
26/10:30am 18.8 15.7 5.7 42 6.6 ENE 11 15 6 8 1016.6 1014.7 0.0
26/10:00am 18.4 14.6 5.7 43 6.4 ENE 15 19 8 10 1016.7 1014.9 0.0
26/09:30am 18.5 14.6 5.3 42 6.6 E 15 20 8 11 1016.8 1015.0 0.0
26/09:00am 18.5 14.1 5.0 41 6.7 E 17 19 9 10 1016.8 1015.0 0.0
26/08:30am 17.8 13.1 5.1 43 6.3 ENE 19 26 10 14 1016.6 1014.7 0.0
26/08:00am 17.3 14.0 6.2 48 5.6 E 13 19 7 10 1016.4 1014.5 0.0
26/07:30am 15.7 13.8 6.5 54 4.6 SE 6 7 3 4 1016.3 1014.4 0.0
26/07:00am 12.8 12.8 9.8 82 1.6 CALM 0 0 0 0 1016.1 1014.2 0.0
26/06:30am 12.2 12.1 9.3 82 1.5 CALM 0 0 0 0 1015.6 1013.8 0.0
26/06:00am 12.2 11.3 9.3 82 1.5 S 4 7 2 4 1015.2 1013.4 0.0
26/05:30am 12.2 11.6 8.9 80 1.7 S 2 7 1 4 1014.7 1012.8 0.0
26/05:00am 12.3 12.2 9.4 82 1.5 CALM 0 0 0 0 1014.3 1012.4 0.0
26/04:30am 12.5 12.1 8.4 76 2.1 CALM 0 0 0 0 1014.0 1012.1 0.0
26/04:00am 13.7 11.7 6.9 63 3.4 N 7 7 4 4 1013.7 1011.9 0.0
26/03:30am 13.7 11.2 6.7 62 3.5 E 9 11 5 6 1013.7 1011.9 0.0
26/03:00am 14.3 11.0 6.5 59 3.9 SE 13 15 7 8 1014.1 1012.2 0.0
26/02:30am 14.0 11.3 7.5 65 3.3 SE 11 13 6 7 1014.0 1012.1 0.0
26/02:00am 14.0 11.9 8.4 69 2.9 SE 9 11 5 6 1014.1 1012.2 0.0
26/01:30am 15.4 12.5 6.6 55 4.4 E 11 13 6 7 1014.2 1012.3 0.0
26/01:00am 15.1 12.4 7.5 60 3.9 E 11 13 6 7 1014.4 1012.5 0.0
26/12:30am 14.1 12.1 8.7 70 2.8 SE 9 9 5 5 1014.6 1012.7 0.0
26/12:00am 15.8 13.1 7.4 57 4.3 E 11 13 6 7 1014.7 1012.8 0.0
 
Date/Time
CST
Temp
°C
App
Temp
°C
Dew
Point
°C
Rel
Hum
%
Delta-T
°C
Wind Press
QNH
hPa
Press
MSL
hPa
Rain since
9am
mm
Dir  Spd
km/h
Gust
km/h
Spd
kts
Gust
kts
25/11:30pm 16.0 13.2 6.9 54 4.6 E 11 13 6 7 1014.9 1013.0 0.0
25/11:00pm 15.8 13.2 7.6 58 4.2 ESE 11 11 6 6 1015.2 1013.4 0.0
25/10:30pm 17.4 14.0 6.1 47 5.7 ESE 13 15 7 8 1015.3 1013.5 0.0
25/10:00pm 18.2 14.4 5.7 44 6.3 E 15 19 8 10 1015.4 1013.6 0.0
25/09:30pm 19.0 14.2 4.9 39 7.0 E 19 20 10 11 1015.4 1013.6 0.0
25/09:00pm 19.0 15.4 5.2 40 6.9 E 13 19 7 10 1015.5 1013.7 0.0
25/08:30pm 19.4 15.2 5.5 40 7.0 E 17 22 9 12 1015.2 1013.4 0.0
25/08:00pm 20.4 16.0 4.6 35 7.9 E 17 24 9 13 1014.9 1013.0 0.0
25/07:30pm 20.4 16.4 5.1 36 7.7 E 15 19 8 10 1014.6 1012.7 0.0
25/07:00pm 20.8 16.6 5.5 36 7.8 E 17 26 9 14 1014.3 1012.4 0.0
25/06:30pm 22.4 17.5 4.0 30 9.2 E 19 24 10 13 1013.8 1012.0 0.0
25/06:00pm 23.5 18.0 3.8 27 9.9 ESE 22 28 12 15 1013.5 1011.7 0.0
25/05:30pm 24.1 18.5 3.3 25 10.4 ESE 22 32 12 17 1013.3 1011.4 0.0
25/05:00pm 24.7 19.1 3.4 25 10.7 ESE 22 32 12 17 1013.1 1011.2 0.0
25/04:30pm 24.8 19.6 3.6 25 10.7 E 20 28 11 15 1013.1 1011.2 0.0
25/04:00pm 24.9 19.7 3.5 25 10.8 ESE 20 30 11 16 1013.2 1011.3 0.0
25/03:30pm 24.4 19.4 3.5 25 10.5 E 19 30 10 16 1013.3 1011.4 0.0
25/03:00pm 25.1 20.5 3.5 24 10.9 ESE 17 28 9 15 1013.5 1011.7 0.0
25/02:30pm 23.7 19.1 3.8 27 10.0 ESE 17 30 9 16 1014.1 1012.2 0.0
25/02:00pm 23.3 19.1 3.7 28 9.8 E 15 28 8 15 1014.5 1012.6 0.0
25/01:30pm 24.0 19.4 3.7 26 10.2 NE 17 28 9 15 1015.2 1013.4 0.0
25/01:00pm 22.7 17.5 3.3 28 9.6 E 20 35 11 19 1015.5 1013.7 0.0
25/12:30pm 22.3 17.0 3.2 28 9.4 E 20 30 11 16 1016.1 1014.2 0.0
25/12:00pm 21.8 17.1 3.0 29 9.2 E 17 30 9 16 1016.7 1014.9 0.0
25/11:30am 20.1 14.9 3.8 34 8.0 E 20 28 11 15 1017.3 1015.5 0.0
25/11:00am 19.7 14.3 2.5 32 8.2 E 20 33 11 18 1017.5 1015.7 0.0
25/10:30am 19.3 12.4 2.4 32 8.0 E 28 41 15 22 1017.6 1015.8 0.0
25/10:00am 18.4 11.0 1.9 33 7.7 ENE 30 37 16 20 1018.1 1016.2 0.0
25/09:30am 17.4 11.1 1.8 35 7.2 E 24 33 13 18 1018.4 1016.6 0.0
25/09:00am 16.6 9.1 1.1 35 7.0 E 30 33 16 18 1018.2 1016.3 0.8
25/08:30am 16.0 8.1 1.1 36 6.7 E 32 41 17 22 1018.1 1016.2 0.8
25/08:00am 15.5 9.3 1.9 40 6.2 E 24 33 13 18 1017.7 1015.9 0.8

Other Formats:

Comma delimited format used in spreadsheet applications
http://www.bom.gov.au/fwo/IDD60801/IDD60801.94326.axf

JavaScript Object Notation format (JSON) in row-major order
http://www.bom.gov.au/fwo/IDD60801/IDD60801.94326.json